createdAt,value
2019-05-26T00:01:07.769Z,14.40
2019-05-26T00:03:36.410Z,14.29
2019-05-26T00:06:05.134Z,13.96
2019-05-26T00:08:33.819Z,13.57
2019-05-26T00:11:02.548Z,13.65
2019-05-26T00:13:31.183Z,13.40
2019-05-26T00:16:00.044Z,13.37
2019-05-26T00:18:28.671Z,13.41
2019-05-26T00:20:57.306Z,13.58
2019-05-26T00:23:25.916Z,13.80
2019-05-26T00:25:54.541Z,13.61
2019-05-26T00:28:23.169Z,13.43
2019-05-26T00:30:51.872Z,13.75
2019-05-26T00:33:20.513Z,13.94
2019-05-26T00:35:49.155Z,13.85
2019-05-26T00:38:17.838Z,13.76
2019-05-26T00:40:46.707Z,13.49
2019-05-26T00:43:15.469Z,13.49
2019-05-26T00:45:44.242Z,13.40
2019-05-26T00:48:13.019Z,13.43
2019-05-26T00:50:41.726Z,13.06
2019-05-26T00:53:10.495Z,13.38
2019-05-26T00:55:39.210Z,13.50
2019-05-26T00:58:07.912Z,13.59
2019-05-26T01:00:41.093Z,13.53
2019-05-26T01:03:10.292Z,13.44
2019-05-26T01:05:39.214Z,13.12
2019-05-26T01:08:08.131Z,12.97
2019-05-26T01:10:36.947Z,13.12
2019-05-26T01:13:06.096Z,13.07
2019-05-26T01:15:35.121Z,13.01
2019-05-26T01:18:03.945Z,13.13
2019-05-26T01:20:32.648Z,12.88
2019-05-26T01:23:01.278Z,12.76
2019-05-26T01:25:30.062Z,12.73
2019-05-26T01:27:58.728Z,12.70
2019-05-26T01:30:37.793Z,12.76
2019-05-26T01:33:06.756Z,12.60
2019-05-26T01:35:38.972Z,12.74
2019-05-26T01:38:22.527Z,12.59
2019-05-26T01:40:40.034Z,12.40
2019-05-26T01:43:09.124Z,12.36
2019-05-26T01:45:37.844Z,12.39
2019-05-26T01:48:07.195Z,12.37
2019-05-26T01:50:35.988Z,12.37
2019-05-26T01:53:05.067Z,12.37
2019-05-26T01:55:33.853Z,12.37
2019-05-26T01:58:02.531Z,12.02
2019-05-26T02:00:31.234Z,11.85
2019-05-26T02:02:59.982Z,11.82
2019-05-26T02:05:28.676Z,11.66
2019-05-26T02:07:57.375Z,11.57
2019-05-26T02:10:26.070Z,11.44
2019-05-26T02:12:54.700Z,11.32
2019-05-26T02:15:23.897Z,11.28
2019-05-26T02:17:52.595Z,11.30
2019-05-26T02:20:21.506Z,11.43
2019-05-26T02:22:50.206Z,11.39
2019-05-26T02:25:19.304Z,11.36
2019-05-26T02:27:47.968Z,11.32
2019-05-26T02:30:16.971Z,11.44
2019-05-26T02:32:45.719Z,11.59
2019-05-26T02:35:14.796Z,11.50
2019-05-26T02:37:43.911Z,11.44
2019-05-26T02:40:13.601Z,11.32
2019-05-26T02:42:42.235Z,11.40
2019-05-26T02:45:12.928Z,11.39
2019-05-26T02:47:41.646Z,11.56
2019-05-26T02:50:10.789Z,11.51
2019-05-26T02:52:39.407Z,11.44
2019-05-26T02:55:09.021Z,11.21
2019-05-26T02:57:37.757Z,11.13
2019-05-26T03:00:07.120Z,11.00
2019-05-26T03:02:35.748Z,11.07
2019-05-26T03:05:05.415Z,10.89
2019-05-26T03:07:34.138Z,10.86
2019-05-26T03:10:03.987Z,10.91
2019-05-26T03:12:34.176Z,10.94
2019-05-26T03:15:03.843Z,10.84
2019-05-26T03:17:34.862Z,10.87
2019-05-26T03:20:05.635Z,10.78
2019-05-26T03:22:34.734Z,10.68
2019-05-26T03:25:04.732Z,10.64
2019-05-26T03:27:33.525Z,10.75
2019-05-26T03:30:02.315Z,10.66
2019-05-26T03:32:30.929Z,10.69
2019-05-26T03:35:00.135Z,10.58
2019-05-26T03:37:28.849Z,10.61
2019-05-26T03:39:57.572Z,10.78
2019-05-26T03:42:26.242Z,10.73
2019-05-26T03:44:54.896Z,10.74
2019-05-26T03:47:23.534Z,10.89
2019-05-26T03:49:52.160Z,10.81
2019-05-26T03:52:20.830Z,10.98
2019-05-26T03:54:49.467Z,10.92
2019-05-26T03:57:18.101Z,10.81
2019-05-26T03:59:46.816Z,10.66
2019-05-26T04:02:15.470Z,10.55
2019-05-26T04:04:44.180Z,10.54
2019-05-26T04:07:12.826Z,10.51
2019-05-26T04:09:41.465Z,10.54
2019-05-26T04:12:10.387Z,10.26
2019-05-26T04:14:39.010Z,10.29
2019-05-26T04:17:07.770Z,10.40
2019-05-26T04:19:36.420Z,10.40
2019-05-26T04:22:05.161Z,10.28
2019-05-26T04:24:33.901Z,10.37
2019-05-26T04:27:02.586Z,10.49
2019-05-26T04:29:31.214Z,10.68
2019-05-26T04:32:02.148Z,10.70
2019-05-26T04:34:30.231Z,10.64
2019-05-26T04:36:58.894Z,10.76
2019-05-26T04:39:27.517Z,10.84
2019-05-26T04:41:56.180Z,10.91
2019-05-26T04:44:24.834Z,11.06
2019-05-26T04:46:53.472Z,11.23
2019-05-26T04:49:22.122Z,11.37
2019-05-26T04:51:50.771Z,11.41
2019-05-26T04:54:19.389Z,11.56
2019-05-26T04:56:48.090Z,11.68
2019-05-26T04:59:16.716Z,11.77
2019-05-26T05:01:45.386Z,11.81
2019-05-26T05:04:14.104Z,11.95
2019-05-26T05:06:42.722Z,12.04
2019-05-26T05:09:11.447Z,12.23
2019-05-26T05:11:40.153Z,12.37
2019-05-26T05:14:08.847Z,12.50
2019-05-26T05:16:37.558Z,12.62
2019-05-26T05:19:06.327Z,12.76
2019-05-26T05:21:35.054Z,12.84
2019-05-26T05:24:03.713Z,12.94
2019-05-26T05:26:32.366Z,13.11
2019-05-26T05:29:01.138Z,13.21
2019-05-26T05:31:29.738Z,13.31
2019-05-26T05:33:58.506Z,13.38
2019-05-26T05:36:27.203Z,13.43
2019-05-26T05:38:55.947Z,13.57
2019-05-26T05:41:24.611Z,13.68
2019-05-26T05:43:53.268Z,13.79
2019-05-26T05:46:21.996Z,13.90
2019-05-26T05:48:50.669Z,14.10
2019-05-26T05:51:19.299Z,14.07
2019-05-26T05:53:47.982Z,14.30
2019-05-26T05:56:16.612Z,14.44
2019-05-26T05:58:45.357Z,14.62
2019-05-26T06:01:13.984Z,14.77
2019-05-26T06:03:42.728Z,14.96
2019-05-26T06:06:11.471Z,15.06
2019-05-26T06:08:40.188Z,15.18
2019-05-26T06:11:16.512Z,15.26
2019-05-26T06:13:39.335Z,15.43
2019-05-26T06:16:07.971Z,15.69
2019-05-26T06:18:36.619Z,15.69
2019-05-26T06:21:05.364Z,15.98
2019-05-26T06:23:36.865Z,15.94
2019-05-26T06:26:05.531Z,15.94
2019-05-26T06:28:34.257Z,15.97
2019-05-26T06:31:02.969Z,15.91
2019-05-26T06:33:31.620Z,16.04
2019-05-26T06:36:00.272Z,16.19
2019-05-26T06:38:29.021Z,16.20
2019-05-26T06:40:57.810Z,16.35
2019-05-26T06:43:26.743Z,16.50
2019-05-26T06:45:55.495Z,16.55
2019-05-26T06:48:26.754Z,16.55
2019-05-26T06:50:54.852Z,16.99
2019-05-26T06:53:23.624Z,16.92
2019-05-26T06:55:52.416Z,16.92
2019-05-26T06:58:21.212Z,17.23
2019-05-26T07:00:50.115Z,17.30
2019-05-26T07:03:18.906Z,17.33
2019-05-26T07:05:47.581Z,17.36
2019-05-26T07:08:16.288Z,17.51
2019-05-26T07:10:45.011Z,17.64
2019-05-26T07:13:13.736Z,17.64
2019-05-26T07:15:42.409Z,17.63
2019-05-26T07:18:11.144Z,17.41
2019-05-26T07:20:39.855Z,17.41
2019-05-26T07:23:09.263Z,17.63
2019-05-26T07:25:38.198Z,17.76
2019-05-26T07:28:06.911Z,17.72
2019-05-26T07:30:35.670Z,17.72
2019-05-26T07:33:04.492Z,17.65
2019-05-26T07:35:33.467Z,17.91
2019-05-26T07:38:02.174Z,17.91
2019-05-26T07:40:30.889Z,18.12
2019-05-26T07:42:59.639Z,18.23
2019-05-26T07:45:28.348Z,18.23
2019-05-26T07:47:57.165Z,18.35
2019-05-26T07:50:26.083Z,18.52
2019-05-26T07:52:54.836Z,18.52
2019-05-26T07:55:23.532Z,18.76
2019-05-26T07:57:52.189Z,18.75
2019-05-26T08:00:21.454Z,18.94
2019-05-26T08:02:50.128Z,19.13
2019-05-26T08:05:18.830Z,19.13
2019-05-26T08:08:11.638Z,19.14
2019-05-26T08:10:27.541Z,19.27
2019-05-26T08:12:56.258Z,19.27
2019-05-26T08:15:25.354Z,19.37
2019-05-26T08:17:53.997Z,19.12
2019-05-26T08:20:22.808Z,19.12
2019-05-26T08:23:44.131Z,19.33
2019-05-26T08:26:12.716Z,19.37
2019-05-26T08:28:41.435Z,19.38
2019-05-26T08:31:13.254Z,19.44
2019-05-26T08:33:40.594Z,19.31
2019-05-26T08:36:09.223Z,19.53
2019-05-26T08:38:37.891Z,19.57
2019-05-26T08:41:06.702Z,19.57
2019-05-26T08:43:35.426Z,19.46
2019-05-26T08:46:04.397Z,19.85
2019-05-26T08:48:33.055Z,19.87
2019-05-26T08:51:01.976Z,19.98
2019-05-26T08:53:30.708Z,20.09
2019-05-26T08:55:59.377Z,20.00
2019-05-26T08:58:29.448Z,19.98
2019-05-26T09:00:58.326Z,19.82
2019-05-26T09:03:27.057Z,19.82
2019-05-26T09:05:55.776Z,19.87
2019-05-26T09:08:24.504Z,19.77
2019-05-26T09:10:53.278Z,19.84
2019-05-26T09:13:21.918Z,19.77
2019-05-26T09:15:50.599Z,19.81
2019-05-26T09:18:19.289Z,19.98
2019-05-26T09:20:47.980Z,20.27
2019-05-26T09:23:18.621Z,20.27
2019-05-26T09:25:47.367Z,20.34
2019-05-26T09:28:16.199Z,20.61
2019-05-26T09:30:44.928Z,20.79
2019-05-26T09:33:13.779Z,20.87
2019-05-26T09:35:42.566Z,20.59
2019-05-26T09:38:11.264Z,20.26
2019-05-26T09:40:40.022Z,20.30
2019-05-26T09:43:15.991Z,20.48
2019-05-26T09:45:39.300Z,20.43
2019-05-26T09:48:07.925Z,20.67
2019-05-26T09:50:36.592Z,20.76
2019-05-26T09:53:05.386Z,20.82
2019-05-26T09:55:34.118Z,21.04
2019-05-26T09:58:02.749Z,21.07
2019-05-26T10:00:31.486Z,21.34
2019-05-26T10:03:00.130Z,21.32
2019-05-26T10:05:28.910Z,21.22
2019-05-26T10:07:57.557Z,21.40
2019-05-26T10:10:26.652Z,21.55
2019-05-26T10:12:55.433Z,21.44
2019-05-26T10:15:24.212Z,21.39
2019-05-26T10:17:52.837Z,21.49
2019-05-26T10:20:21.929Z,21.59
2019-05-26T10:22:50.767Z,21.79
2019-05-26T10:25:19.537Z,21.48
2019-05-26T10:27:48.211Z,21.17
2019-05-26T10:30:18.794Z,21.38
2019-05-26T10:32:47.418Z,21.45
2019-05-26T10:35:16.789Z,21.71
2019-05-26T10:37:45.447Z,21.74
2019-05-26T10:40:14.863Z,21.67
2019-05-26T10:42:43.464Z,21.81
2019-05-26T10:45:12.413Z,21.69
2019-05-26T10:47:41.089Z,21.64
2019-05-26T10:50:10.201Z,21.77
2019-05-26T10:52:39.232Z,21.70
2019-05-26T10:55:08.135Z,21.90
2019-05-26T10:57:36.954Z,21.84
2019-05-26T11:00:06.902Z,21.80
2019-05-26T11:02:35.584Z,21.70
2019-05-26T11:05:04.373Z,21.61
2019-05-26T11:07:33.024Z,21.78
2019-05-26T11:10:01.785Z,21.80
2019-05-26T11:12:30.496Z,21.85
2019-05-26T11:14:59.164Z,21.84
2019-05-26T11:17:27.806Z,21.94
2019-05-26T11:19:56.542Z,21.87
2019-05-26T11:22:25.364Z,22.03
2019-05-26T11:24:53.934Z,22.17
2019-05-26T11:27:22.602Z,22.29
2019-05-26T11:29:51.307Z,22.28
2019-05-26T11:32:20.016Z,22.18
2019-05-26T11:35:00.694Z,21.89
2019-05-26T11:37:19.259Z,22.06
2019-05-26T11:39:47.896Z,22.07
2019-05-26T11:42:16.529Z,22.20
2019-05-26T11:44:45.159Z,22.16
2019-05-26T11:47:13.872Z,22.33
2019-05-26T11:49:42.692Z,22.50
2019-05-26T11:52:11.358Z,22.63
2019-05-26T11:54:39.998Z,22.45
2019-05-26T11:57:08.805Z,22.49
2019-05-26T11:59:37.435Z,22.69
2019-05-26T12:02:06.154Z,22.44
2019-05-26T12:04:34.851Z,22.53
2019-05-26T12:07:04.449Z,22.33
2019-05-26T12:09:33.326Z,22.24
2019-05-26T12:12:01.949Z,22.39
2019-05-26T12:14:35.006Z,22.57
2019-05-26T12:17:00.911Z,22.50
2019-05-26T12:19:29.623Z,22.58
2019-05-26T12:21:58.238Z,22.41
2019-05-26T12:24:26.997Z,22.59
2019-05-26T12:26:55.692Z,22.64
2019-05-26T12:29:24.419Z,22.87
2019-05-26T12:31:53.070Z,22.98
2019-05-26T12:34:21.761Z,23.15
2019-05-26T12:36:50.469Z,23.12
2019-05-26T12:39:19.250Z,23.26
2019-05-26T12:41:48.005Z,23.24
2019-05-26T12:44:16.772Z,23.40
2019-05-26T12:46:45.507Z,23.30
2019-05-26T12:49:14.300Z,23.43
2019-05-26T12:51:43.019Z,23.30
2019-05-26T12:54:14.496Z,22.91
2019-05-26T12:56:43.139Z,23.13
2019-05-26T12:59:14.507Z,23.28
2019-05-26T13:01:43.156Z,23.44
2019-05-26T13:04:11.797Z,23.18
2019-05-26T13:06:42.601Z,23.12
2019-05-26T13:09:12.189Z,23.07
2019-05-26T13:11:40.956Z,23.26
2019-05-26T13:14:09.613Z,23.44
2019-05-26T13:16:38.351Z,23.50
2019-05-26T13:19:07.106Z,23.80
2019-05-26T13:21:35.919Z,24.00
2019-05-26T13:24:04.897Z,23.97
2019-05-26T13:26:33.547Z,23.81
2019-05-26T13:29:02.178Z,23.54
2019-05-26T13:31:30.894Z,23.43
2019-05-26T13:33:59.614Z,23.72
2019-05-26T13:36:28.324Z,24.04
2019-05-26T13:38:56.993Z,24.24
2019-05-26T13:41:25.816Z,24.09
2019-05-26T13:43:54.516Z,24.29
2019-05-26T13:46:23.164Z,24.34
2019-05-26T13:48:51.863Z,24.19
2019-05-26T13:51:20.538Z,24.20
2019-05-26T13:53:49.235Z,24.21
2019-05-26T13:56:17.937Z,24.17
2019-05-26T13:58:46.588Z,24.22
2019-05-26T14:01:15.219Z,24.18
2019-05-26T14:03:43.957Z,24.07
2019-05-26T14:06:12.669Z,24.01
2019-05-26T14:08:41.471Z,24.06
2019-05-26T14:11:10.102Z,24.12
2019-05-26T14:13:39.399Z,24.36
2019-05-26T14:16:08.125Z,24.45
2019-05-26T14:18:37.248Z,24.19
2019-05-26T14:21:06.014Z,24.30
2019-05-26T14:23:35.988Z,24.34
2019-05-26T14:26:04.697Z,24.43
2019-05-26T14:28:33.337Z,24.37
2019-05-26T14:31:01.981Z,24.42
2019-05-26T14:33:30.646Z,24.36
2019-05-26T14:35:59.292Z,24.40
2019-05-26T14:38:42.292Z,24.24
2019-05-26T14:40:58.337Z,23.97
2019-05-26T14:43:26.979Z,24.18
2019-05-26T14:45:55.639Z,24.29
2019-05-26T14:48:24.432Z,24.50
2019-05-26T14:50:53.129Z,24.57
2019-05-26T14:53:22.388Z,24.62
2019-05-26T14:55:51.100Z,24.43
2019-05-26T14:58:19.778Z,24.36
2019-05-26T15:00:48.426Z,24.51
2019-05-26T15:03:17.059Z,24.69
2019-05-26T15:05:45.669Z,24.84
2019-05-26T15:08:14.428Z,24.80
2019-05-26T15:10:43.127Z,24.95
2019-05-26T15:13:11.910Z,24.98
2019-05-26T15:15:41.467Z,25.06
2019-05-26T15:18:10.128Z,25.14
2019-05-26T15:20:38.840Z,25.24
2019-05-26T15:23:07.486Z,25.09
2019-05-26T15:25:36.323Z,24.95
2019-05-26T15:28:05.199Z,24.77
2019-05-26T15:30:33.822Z,24.69
2019-05-26T15:33:02.445Z,24.76
2019-05-26T15:35:31.102Z,24.75
2019-05-26T15:37:59.797Z,24.38
2019-05-26T15:40:29.114Z,24.34
2019-05-26T15:42:57.734Z,24.43
2019-05-26T15:45:26.449Z,24.72
2019-05-26T15:47:55.217Z,24.69
2019-05-26T15:50:23.938Z,24.65
2019-05-26T15:52:52.561Z,24.70
2019-05-26T15:55:21.291Z,24.91
2019-05-26T15:57:49.962Z,24.85
2019-05-26T16:00:18.797Z,24.90
2019-05-26T16:02:47.535Z,24.98
2019-05-26T16:05:16.374Z,24.95
2019-05-26T16:07:45.062Z,25.10
2019-05-26T16:10:13.941Z,24.95
2019-05-26T16:12:42.574Z,25.00
2019-05-26T16:15:11.617Z,24.96
2019-05-26T16:17:40.439Z,24.91
2019-05-26T16:20:09.435Z,24.75
2019-05-26T16:22:38.198Z,24.73
2019-05-26T16:25:07.198Z,24.60
2019-05-26T16:27:36.009Z,24.74
2019-05-26T16:30:07.033Z,24.86
2019-05-26T16:32:35.660Z,25.01
2019-05-26T16:35:05.127Z,25.19
2019-05-26T16:37:33.801Z,25.02
2019-05-26T16:40:02.546Z,25.00
2019-05-26T16:42:31.245Z,24.91
2019-05-26T16:44:59.979Z,24.86
2019-05-26T16:47:28.617Z,24.71
2019-05-26T16:49:57.632Z,24.52
2019-05-26T16:52:26.309Z,24.66
2019-05-26T16:54:55.043Z,25.03
2019-05-26T16:57:23.759Z,25.10
2019-05-26T16:59:52.460Z,25.32
2019-05-26T17:02:21.212Z,25.79
2019-05-26T17:04:49.833Z,24.97
2019-05-26T17:07:18.495Z,24.85
2019-05-26T17:09:47.178Z,24.49
2019-05-26T17:12:15.811Z,24.68
2019-05-26T17:14:44.445Z,24.47
2019-05-26T17:17:15.073Z,24.54
2019-05-26T17:19:43.476Z,24.50
2019-05-26T17:22:12.168Z,24.05
2019-05-26T17:24:40.865Z,23.86
2019-05-26T17:27:09.595Z,23.42
2019-05-26T17:29:38.378Z,23.39
2019-05-26T17:32:07.095Z,23.38
2019-05-26T17:34:35.808Z,23.03
2019-05-26T17:37:04.560Z,22.79
2019-05-26T17:39:33.241Z,22.89
2019-05-26T17:42:01.937Z,22.78
2019-05-26T17:44:30.665Z,22.82
2019-05-26T17:46:59.379Z,22.74
2019-05-26T17:49:28.013Z,22.83
2019-05-26T17:51:56.738Z,22.84
2019-05-26T17:54:25.364Z,22.70
2019-05-26T17:56:54.085Z,22.75
2019-05-26T17:59:22.805Z,22.64
2019-05-26T18:01:51.543Z,22.51
2019-05-26T18:04:20.170Z,22.46
2019-05-26T18:06:48.831Z,22.59
2019-05-26T18:09:17.515Z,22.74
2019-05-26T18:11:46.185Z,22.57
2019-05-26T18:14:14.880Z,22.59
2019-05-26T18:16:43.550Z,22.43
2019-05-26T18:19:12.330Z,22.33
2019-05-26T18:21:41.148Z,22.34
2019-05-26T18:24:09.842Z,22.28
2019-05-26T18:26:38.474Z,22.19
2019-05-26T18:29:07.177Z,22.10
2019-05-26T18:31:36.085Z,22.19
2019-05-26T18:34:04.926Z,22.12
2019-05-26T18:36:33.575Z,21.99
2019-05-26T18:39:02.195Z,22.06
2019-05-26T18:41:30.812Z,21.93
2019-05-26T18:43:59.559Z,21.93
2019-05-26T18:46:28.328Z,21.95
2019-05-26T18:48:56.991Z,21.91
2019-05-26T18:51:25.628Z,21.78
2019-05-26T18:53:54.272Z,21.74
2019-05-26T18:56:22.924Z,21.61
2019-05-26T18:58:51.697Z,21.59
2019-05-26T19:01:20.418Z,21.60
2019-05-26T19:03:49.121Z,21.48
2019-05-26T19:06:17.923Z,21.58
2019-05-26T19:08:46.657Z,21.49
2019-05-26T19:11:15.410Z,21.45
2019-05-26T19:13:44.718Z,21.70
2019-05-26T19:16:17.075Z,21.50
2019-05-26T19:18:48.055Z,21.48
2019-05-26T19:21:18.834Z,21.44
2019-05-26T19:24:09.658Z,21.44
2019-05-26T19:26:41.643Z,21.37
2019-05-26T19:29:21.855Z,21.41
2019-05-26T19:31:57.363Z,21.49
2019-05-26T19:34:28.320Z,21.51
2019-05-26T19:36:57.837Z,21.48
2019-05-26T19:39:29.676Z,21.50
2019-05-26T19:42:03.245Z,21.42
2019-05-26T19:44:35.865Z,21.34
2019-05-26T19:47:08.789Z,21.36
2019-05-26T19:49:39.965Z,21.31
2019-05-26T19:52:31.042Z,21.22
2019-05-26T19:55:02.721Z,21.27
2019-05-26T19:57:37.707Z,21.25
2019-05-26T20:00:14.684Z,21.21
2019-05-26T20:03:00.112Z,21.15
2019-05-26T20:05:29.562Z,21.14
2019-05-26T20:08:21.272Z,21.12
2019-05-26T20:10:55.649Z,21.10
2019-05-26T20:13:25.785Z,21.13
2019-05-26T20:15:58.079Z,21.00
2019-05-26T20:18:30.286Z,20.99
2019-05-26T20:21:03.533Z,20.94
2019-05-26T20:23:32.705Z,20.97
2019-05-26T20:26:03.553Z,21.00
2019-05-26T20:28:36.378Z,20.85
2019-05-26T20:31:09.234Z,20.84
2019-05-26T20:33:38.498Z,20.82
2019-05-26T20:36:11.003Z,20.72
2019-05-26T20:38:40.482Z,20.64
2019-05-26T20:41:13.299Z,20.66
2019-05-26T20:43:43.872Z,20.51
2019-05-26T20:46:12.994Z,20.43
2019-05-26T20:48:51.043Z,20.25
2019-05-26T20:51:21.594Z,20.33
2019-05-26T20:53:50.415Z,20.18
2019-05-26T20:56:20.625Z,20.08
2019-05-26T20:58:59.382Z,19.90
2019-05-26T21:01:33.751Z,19.82
2019-05-26T21:04:03.387Z,19.82
2019-05-26T21:06:34.333Z,19.78
2019-05-26T21:09:15.792Z,19.69
2019-05-26T21:11:57.448Z,19.78
2019-05-26T21:14:28.823Z,19.56
2019-05-26T21:17:03.494Z,19.45
2019-05-26T21:19:34.499Z,19.51
2019-05-26T21:22:04.860Z,19.44
2019-05-26T21:24:37.110Z,19.58
2019-05-26T21:27:12.041Z,19.42
2019-05-26T21:29:46.979Z,19.41
2019-05-26T21:32:17.621Z,19.34
2019-05-26T21:34:50.857Z,19.27
2019-05-26T21:37:23.984Z,19.20
2019-05-26T21:40:03.469Z,19.18
2019-05-26T21:42:35.368Z,19.07
2019-05-26T21:45:13.872Z,19.01
2019-05-26T21:47:48.903Z,18.93
2019-05-26T21:50:17.886Z,18.91
2019-05-26T21:52:55.546Z,18.88
2019-05-26T21:55:25.444Z,18.72
2019-05-26T21:57:56.342Z,18.38
2019-05-26T22:00:33.927Z,18.21
2019-05-26T22:03:06.195Z,18.23
2019-05-26T22:05:35.821Z,18.20
2019-05-26T22:08:10.478Z,18.23
2019-05-26T22:10:44.131Z,18.23
2019-05-26T22:13:17.375Z,18.25
2019-05-26T22:15:47.022Z,18.10
2019-05-26T22:18:15.725Z,18.06
2019-05-26T22:20:44.420Z,17.93
2019-05-26T22:23:13.163Z,17.70
2019-05-26T22:25:41.867Z,17.73
2019-05-26T22:28:14.614Z,17.73
2019-05-26T22:30:49.721Z,17.68
2019-05-26T22:33:29.662Z,17.64
2019-05-26T22:36:09.216Z,17.74
2019-05-26T22:38:39.037Z,17.60
2019-05-26T22:41:09.775Z,17.64
2019-05-26T22:43:38.875Z,17.60
2019-05-26T22:46:11.586Z,17.40
2019-05-26T22:49:17.858Z,17.46
2019-05-26T22:51:51.063Z,17.44
2019-05-26T22:54:36.365Z,17.44
2019-05-26T22:57:07.018Z,17.45
2019-05-26T22:59:37.364Z,17.45
2019-05-26T23:02:09.646Z,17.43
2019-05-26T23:04:41.566Z,17.18
2019-05-26T23:07:10.159Z,17.23
2019-05-26T23:09:38.857Z,17.21
2019-05-26T23:12:07.592Z,17.21
2019-05-26T23:14:36.362Z,17.18
2019-05-26T23:17:05.230Z,17.21
2019-05-26T23:19:33.919Z,17.31
2019-05-26T23:22:02.613Z,17.31
2019-05-26T23:24:31.594Z,17.42
2019-05-26T23:27:00.485Z,17.19
2019-05-26T23:29:29.284Z,17.10
2019-05-26T23:31:57.920Z,17.10
2019-05-26T23:34:26.579Z,17.04
2019-05-26T23:36:55.287Z,17.10
2019-05-26T23:39:23.910Z,17.13
2019-05-26T23:41:52.719Z,16.98
2019-05-26T23:44:21.363Z,16.98
2019-05-26T23:46:50.018Z,17.07
2019-05-26T23:49:18.733Z,16.88
2019-05-26T23:51:47.377Z,16.88
2019-05-26T23:54:16.043Z,16.99
2019-05-26T23:56:44.708Z,16.96
2019-05-26T23:59:13.399Z,16.93
